sensor_id;sensor_type;location;lat;lon;timestamp;P1;durP1;ratioP1;P2;durP2;ratioP2
44987;SDS011;35735;52.226;21.254;2022-09-09T00:05:04;13.80;;;6.40;;
44987;SDS011;35735;52.226;21.254;2022-09-09T00:10:28;9.93;;;5.95;;
44987;SDS011;35735;52.226;21.254;2022-09-09T00:21:07;10.25;;;5.95;;
44987;SDS011;35735;52.226;21.254;2022-09-09T00:26:19;9.38;;;5.45;;
44987;SDS011;35735;52.226;21.254;2022-09-09T00:31:31;10.45;;;6.68;;
44987;SDS011;35735;52.226;21.254;2022-09-09T00:36:32;9.23;;;5.70;;
44987;SDS011;35735;52.226;21.254;2022-09-09T00:41:49;9.85;;;5.75;;
44987;SDS011;35735;52.226;21.254;2022-09-09T00:52:39;8.43;;;6.28;;
44987;SDS011;35735;52.226;21.254;2022-09-09T00:57:52;11.02;;;6.22;;
44987;SDS011;35735;52.226;21.254;2022-09-09T01:02:59;12.55;;;6.32;;
44987;SDS011;35735;52.226;21.254;2022-09-09T01:13:46;9.77;;;5.80;;
44987;SDS011;35735;52.226;21.254;2022-09-09T01:19:05;12.23;;;6.47;;
44987;SDS011;35735;52.226;21.254;2022-09-09T01:24:16;10.75;;;6.47;;
44987;SDS011;35735;52.226;21.254;2022-09-09T01:29:28;12.10;;;7.40;;
44987;SDS011;35735;52.226;21.254;2022-09-09T01:34:33;12.25;;;7.32;;
44987;SDS011;35735;52.226;21.254;2022-09-09T01:39:40;11.73;;;7.28;;
44987;SDS011;35735;52.226;21.254;2022-09-09T01:44:43;12.00;;;6.82;;
44987;SDS011;35735;52.226;21.254;2022-09-09T01:49:44;14.10;;;7.30;;
44987;SDS011;35735;52.226;21.254;2022-09-09T01:54:45;11.73;;;7.55;;
44987;SDS011;35735;52.226;21.254;2022-09-09T02:00:28;12.90;;;7.80;;
44987;SDS011;35735;52.226;21.254;2022-09-09T02:05:21;13.40;;;8.50;;
44987;SDS011;35735;52.226;21.254;2022-09-09T02:10:40;13.70;;;7.40;;
44987;SDS011;35735;52.226;21.254;2022-09-09T02:16:00;13.02;;;7.45;;
44987;SDS011;35735;52.226;21.254;2022-09-09T02:21:08;12.27;;;7.78;;
44987;SDS011;35735;52.226;21.254;2022-09-09T02:26:12;13.00;;;7.07;;
44987;SDS011;35735;52.226;21.254;2022-09-09T02:31:14;10.00;;;7.00;;
44987;SDS011;35735;52.226;21.254;2022-09-09T02:36:19;10.88;;;7.55;;
44987;SDS011;35735;52.226;21.254;2022-09-09T02:41:24;11.55;;;7.30;;
44987;SDS011;35735;52.226;21.254;2022-09-09T02:52:15;9.23;;;6.18;;
44987;SDS011;35735;52.226;21.254;2022-09-09T02:57:22;9.43;;;6.55;;
44987;SDS011;35735;52.226;21.254;2022-09-09T03:02:25;12.00;;;6.72;;
44987;SDS011;35735;52.226;21.254;2022-09-09T03:07:26;11.23;;;6.30;;
44987;SDS011;35735;52.226;21.254;2022-09-09T03:12:26;12.70;;;6.75;;
44987;SDS011;35735;52.226;21.254;2022-09-09T03:17:27;9.95;;;6.62;;
44987;SDS011;35735;52.226;21.254;2022-09-09T03:22:27;10.52;;;6.60;;
44987;SDS011;35735;52.226;21.254;2022-09-09T03:27:28;9.20;;;6.15;;
44987;SDS011;35735;52.226;21.254;2022-09-09T03:32:29;9.10;;;6.80;;
44987;SDS011;35735;52.226;21.254;2022-09-09T03:37:30;10.68;;;6.53;;
44987;SDS011;35735;52.226;21.254;2022-09-09T03:42:30;9.35;;;6.40;;
44987;SDS011;35735;52.226;21.254;2022-09-09T03:47:31;10.40;;;6.10;;
44987;SDS011;35735;52.226;21.254;2022-09-09T03:52:33;8.93;;;6.25;;
44987;SDS011;35735;52.226;21.254;2022-09-09T03:57:36;9.15;;;5.75;;
44987;SDS011;35735;52.226;21.254;2022-09-09T04:02:36;6.70;;;5.30;;
44987;SDS011;35735;52.226;21.254;2022-09-09T04:07:37;7.60;;;5.35;;
44987;SDS011;35735;52.226;21.254;2022-09-09T04:12:37;8.15;;;5.47;;
44987;SDS011;35735;52.226;21.254;2022-09-09T04:17:38;6.72;;;4.82;;
44987;SDS011;35735;52.226;21.254;2022-09-09T04:22:39;6.30;;;4.75;;
44987;SDS011;35735;52.226;21.254;2022-09-09T04:27:39;9.25;;;4.72;;
44987;SDS011;35735;52.226;21.254;2022-09-09T04:32:40;8.88;;;4.65;;
44987;SDS011;35735;52.226;21.254;2022-09-09T04:37:40;7.12;;;4.43;;
44987;SDS011;35735;52.226;21.254;2022-09-09T04:42:41;5.95;;;4.18;;
44987;SDS011;35735;52.226;21.254;2022-09-09T04:47:42;5.15;;;3.87;;
44987;SDS011;35735;52.226;21.254;2022-09-09T04:52:42;5.18;;;3.70;;
44987;SDS011;35735;52.226;21.254;2022-09-09T04:57:43;4.45;;;3.60;;
44987;SDS011;35735;52.226;21.254;2022-09-09T05:02:43;5.93;;;3.80;;
44987;SDS011;35735;52.226;21.254;2022-09-09T05:07:44;4.30;;;3.47;;
44987;SDS011;35735;52.226;21.254;2022-09-09T05:12:51;5.65;;;3.55;;
44987;SDS011;35735;52.226;21.254;2022-09-09T05:17:56;5.78;;;3.37;;
44987;SDS011;35735;52.226;21.254;2022-09-09T05:23:00;4.37;;;3.33;;
44987;SDS011;35735;52.226;21.254;2022-09-09T05:28:01;3.80;;;3.10;;
44987;SDS011;35735;52.226;21.254;2022-09-09T05:33:02;6.60;;;3.40;;
44987;SDS011;35735;52.226;21.254;2022-09-09T05:38:02;4.20;;;3.28;;
44987;SDS011;35735;52.226;21.254;2022-09-09T05:43:03;3.92;;;3.20;;
44987;SDS011;35735;52.226;21.254;2022-09-09T05:48:03;4.62;;;3.30;;
44987;SDS011;35735;52.226;21.254;2022-09-09T05:53:04;4.12;;;3.22;;
44987;SDS011;35735;52.226;21.254;2022-09-09T05:58:04;4.15;;;3.58;;
44987;SDS011;35735;52.226;21.254;2022-09-09T06:03:05;4.25;;;3.62;;
44987;SDS011;35735;52.226;21.254;2022-09-09T06:08:06;4.87;;;3.62;;
44987;SDS011;35735;52.226;21.254;2022-09-09T06:13:06;5.22;;;4.35;;
44987;SDS011;35735;52.226;21.254;2022-09-09T06:18:07;6.90;;;4.20;;
44987;SDS011;35735;52.226;21.254;2022-09-09T06:23:07;5.25;;;4.32;;
44987;SDS011;35735;52.226;21.254;2022-09-09T06:28:08;5.62;;;4.40;;
44987;SDS011;35735;52.226;21.254;2022-09-09T06:33:08;7.00;;;4.60;;
44987;SDS011;35735;52.226;21.254;2022-09-09T06:38:09;5.53;;;4.70;;
44987;SDS011;35735;52.226;21.254;2022-09-09T06:43:09;7.12;;;5.53;;
44987;SDS011;35735;52.226;21.254;2022-09-09T06:48:10;7.30;;;5.00;;
44987;SDS011;35735;52.226;21.254;2022-09-09T06:53:10;6.07;;;5.47;;
44987;SDS011;35735;52.226;21.254;2022-09-09T06:58:11;5.87;;;5.10;;
44987;SDS011;35735;52.226;21.254;2022-09-09T07:03:11;7.60;;;5.28;;
44987;SDS011;35735;52.226;21.254;2022-09-09T07:08:12;7.75;;;5.93;;
44987;SDS011;35735;52.226;21.254;2022-09-09T07:13:13;8.10;;;5.62;;
44987;SDS011;35735;52.226;21.254;2022-09-09T07:18:13;8.90;;;5.45;;
44987;SDS011;35735;52.226;21.254;2022-09-09T07:23:14;6.40;;;5.80;;
44987;SDS011;35735;52.226;21.254;2022-09-09T07:28:14;8.02;;;6.18;;
44987;SDS011;35735;52.226;21.254;2022-09-09T07:33:15;9.73;;;6.72;;
44987;SDS011;35735;52.226;21.254;2022-09-09T07:38:16;8.10;;;5.85;;
44987;SDS011;35735;52.226;21.254;2022-09-09T07:43:16;9.23;;;6.15;;
44987;SDS011;35735;52.226;21.254;2022-09-09T07:48:17;10.13;;;6.18;;
44987;SDS011;35735;52.226;21.254;2022-09-09T07:53:17;9.68;;;6.65;;
44987;SDS011;35735;52.226;21.254;2022-09-09T07:58:18;9.18;;;6.40;;
44987;SDS011;35735;52.226;21.254;2022-09-09T08:03:18;8.80;;;6.75;;
44987;SDS011;35735;52.226;21.254;2022-09-09T08:08:19;7.05;;;5.85;;
44987;SDS011;35735;52.226;21.254;2022-09-09T08:13:20;7.60;;;6.10;;
44987;SDS011;35735;52.226;21.254;2022-09-09T08:18:20;7.03;;;5.72;;
44987;SDS011;35735;52.226;21.254;2022-09-09T08:23:21;7.00;;;5.60;;
44987;SDS011;35735;52.226;21.254;2022-09-09T08:28:21;8.13;;;5.90;;
44987;SDS011;35735;52.226;21.254;2022-09-09T08:33:22;7.80;;;6.03;;
44987;SDS011;35735;52.226;21.254;2022-09-09T08:38:22;9.60;;;6.40;;
44987;SDS011;35735;52.226;21.254;2022-09-09T08:43:23;9.30;;;6.80;;
44987;SDS011;35735;52.226;21.254;2022-09-09T08:48:42;8.85;;;6.62;;
44987;SDS011;35735;52.226;21.254;2022-09-09T08:53:55;9.23;;;6.28;;
44987;SDS011;35735;52.226;21.254;2022-09-09T08:58:59;10.80;;;7.62;;
44987;SDS011;35735;52.226;21.254;2022-09-09T09:14:55;12.10;;;7.80;;
44987;SDS011;35735;52.226;21.254;2022-09-09T09:19:56;9.95;;;7.55;;
44987;SDS011;35735;52.226;21.254;2022-09-09T09:30:21;11.75;;;7.95;;
44987;SDS011;35735;52.226;21.254;2022-09-09T09:35:25;10.98;;;8.02;;
44987;SDS011;35735;52.226;21.254;2022-09-09T09:40:25;13.18;;;9.68;;
44987;SDS011;35735;52.226;21.254;2022-09-09T09:45:32;12.95;;;9.43;;
44987;SDS011;35735;52.226;21.254;2022-09-09T09:50:47;13.02;;;9.18;;
44987;SDS011;35735;52.226;21.254;2022-09-09T09:55:56;15.00;;;10.25;;
44987;SDS011;35735;52.226;21.254;2022-09-09T10:01:00;14.10;;;9.90;;
44987;SDS011;35735;52.226;21.254;2022-09-09T10:06:01;16.77;;;9.85;;
44987;SDS011;35735;52.226;21.254;2022-09-09T10:27:03;14.05;;;10.43;;
44987;SDS011;35735;52.226;21.254;2022-09-09T10:54:51;14.80;;;10.20;;
44987;SDS011;35735;52.226;21.254;2022-09-09T10:59:48;16.12;;;11.30;;
44987;SDS011;35735;52.226;21.254;2022-09-09T11:04:55;14.20;;;10.85;;
44987;SDS011;35735;52.226;21.254;2022-09-09T11:15:52;17.17;;;10.82;;
44987;SDS011;35735;52.226;21.254;2022-09-09T11:21:00;19.20;;;12.95;;
44987;SDS011;35735;52.226;21.254;2022-09-09T11:26:03;15.15;;;11.75;;
44987;SDS011;35735;52.226;21.254;2022-09-09T11:31:16;18.48;;;11.63;;
44987;SDS011;35735;52.226;21.254;2022-09-09T11:36:36;16.35;;;11.52;;
44987;SDS011;35735;52.226;21.254;2022-09-09T11:42:18;16.55;;;11.63;;
44987;SDS011;35735;52.226;21.254;2022-09-09T11:47:26;16.25;;;11.52;;
44987;SDS011;35735;52.226;21.254;2022-09-09T11:52:38;15.50;;;11.30;;
44987;SDS011;35735;52.226;21.254;2022-09-09T11:57:41;17.73;;;12.25;;
44987;SDS011;35735;52.226;21.254;2022-09-09T12:02:48;16.00;;;11.15;;
44987;SDS011;35735;52.226;21.254;2022-09-09T12:07:52;17.00;;;11.65;;
44987;SDS011;35735;52.226;21.254;2022-09-09T12:13:07;16.83;;;11.73;;
44987;SDS011;35735;52.226;21.254;2022-09-09T12:18:23;18.33;;;11.10;;
44987;SDS011;35735;52.226;21.254;2022-09-09T12:23:38;17.90;;;11.85;;
44987;SDS011;35735;52.226;21.254;2022-09-09T12:34:18;18.40;;;12.18;;
44987;SDS011;35735;52.226;21.254;2022-09-09T12:39:50;19.90;;;11.98;;
44987;SDS011;35735;52.226;21.254;2022-09-09T12:45:02;16.80;;;12.05;;
44987;SDS011;35735;52.226;21.254;2022-09-09T12:50:17;18.75;;;12.35;;
44987;SDS011;35735;52.226;21.254;2022-09-09T12:55:24;19.83;;;12.20;;
44987;SDS011;35735;52.226;21.254;2022-09-09T13:00:28;16.15;;;11.75;;
44987;SDS011;35735;52.226;21.254;2022-09-09T13:05:36;17.92;;;12.10;;
44987;SDS011;35735;52.226;21.254;2022-09-09T13:15:56;17.58;;;13.00;;
44987;SDS011;35735;52.226;21.254;2022-09-09T13:20:59;20.23;;;13.55;;
44987;SDS011;35735;52.226;21.254;2022-09-09T13:26:03;23.00;;;13.70;;
44987;SDS011;35735;52.226;21.254;2022-09-09T13:31:19;18.35;;;12.80;;
44987;SDS011;35735;52.226;21.254;2022-09-09T13:36:31;19.25;;;13.25;;
44987;SDS011;35735;52.226;21.254;2022-09-09T13:41:42;20.67;;;14.27;;
44987;SDS011;35735;52.226;21.254;2022-09-09T13:46:43;19.40;;;13.13;;
44987;SDS011;35735;52.226;21.254;2022-09-09T13:51:45;18.20;;;13.18;;
44987;SDS011;35735;52.226;21.254;2022-09-09T13:56:48;20.42;;;13.18;;
44987;SDS011;35735;52.226;21.254;2022-09-09T14:01:49;18.52;;;13.23;;
44987;SDS011;35735;52.226;21.254;2022-09-09T14:06:50;20.12;;;12.63;;
44987;SDS011;35735;52.226;21.254;2022-09-09T14:11:50;19.25;;;12.82;;
44987;SDS011;35735;52.226;21.254;2022-09-09T14:16:51;20.50;;;13.15;;
44987;SDS011;35735;52.226;21.254;2022-09-09T14:21:51;15.75;;;12.27;;
44987;SDS011;35735;52.226;21.254;2022-09-09T14:26:52;18.08;;;12.57;;
44987;SDS011;35735;52.226;21.254;2022-09-09T14:31:53;18.70;;;12.63;;
44987;SDS011;35735;52.226;21.254;2022-09-09T14:36:53;18.00;;;12.32;;
44987;SDS011;35735;52.226;21.254;2022-09-09T14:41:54;16.60;;;12.35;;
44987;SDS011;35735;52.226;21.254;2022-09-09T14:46:55;19.00;;;13.35;;
44987;SDS011;35735;52.226;21.254;2022-09-09T14:51:55;19.12;;;13.27;;
44987;SDS011;35735;52.226;21.254;2022-09-09T14:56:56;22.27;;;13.68;;
44987;SDS011;35735;52.226;21.254;2022-09-09T15:01:57;24.85;;;14.43;;
44987;SDS011;35735;52.226;21.254;2022-09-09T15:06:57;19.25;;;13.40;;
44987;SDS011;35735;52.226;21.254;2022-09-09T15:11:58;21.27;;;12.73;;
44987;SDS011;35735;52.226;21.254;2022-09-09T15:16:58;19.67;;;13.32;;
44987;SDS011;35735;52.226;21.254;2022-09-09T15:21:59;19.85;;;14.52;;
44987;SDS011;35735;52.226;21.254;2022-09-09T15:27:00;19.52;;;14.40;;
44987;SDS011;35735;52.226;21.254;2022-09-09T15:32:01;19.75;;;13.57;;
44987;SDS011;35735;52.226;21.254;2022-09-09T15:37:02;26.75;;;14.63;;
44987;SDS011;35735;52.226;21.254;2022-09-09T15:42:02;26.77;;;14.80;;
44987;SDS011;35735;52.226;21.254;2022-09-09T15:47:03;22.87;;;15.00;;
44987;SDS011;35735;52.226;21.254;2022-09-09T15:52:04;23.20;;;14.55;;
44987;SDS011;35735;52.226;21.254;2022-09-09T15:57:05;19.58;;;14.95;;
44987;SDS011;35735;52.226;21.254;2022-09-09T16:02:10;18.85;;;13.25;;
44987;SDS011;35735;52.226;21.254;2022-09-09T16:07:10;23.45;;;14.98;;
44987;SDS011;35735;52.226;21.254;2022-09-09T16:12:11;20.40;;;14.43;;
44987;SDS011;35735;52.226;21.254;2022-09-09T16:17:11;20.65;;;13.90;;
44987;SDS011;35735;52.226;21.254;2022-09-09T16:22:12;20.90;;;14.85;;
44987;SDS011;35735;52.226;21.254;2022-09-09T16:27:12;23.25;;;15.10;;
44987;SDS011;35735;52.226;21.254;2022-09-09T16:32:13;20.27;;;13.80;;
44987;SDS011;35735;52.226;21.254;2022-09-09T16:37:13;21.70;;;14.60;;
44987;SDS011;35735;52.226;21.254;2022-09-09T16:42:14;24.50;;;14.68;;
44987;SDS011;35735;52.226;21.254;2022-09-09T16:47:14;25.45;;;14.55;;
44987;SDS011;35735;52.226;21.254;2022-09-09T16:52:15;22.33;;;14.00;;
44987;SDS011;35735;52.226;21.254;2022-09-09T16:57:16;18.62;;;13.77;;
44987;SDS011;35735;52.226;21.254;2022-09-09T17:02:16;20.12;;;14.10;;
44987;SDS011;35735;52.226;21.254;2022-09-09T17:07:17;23.87;;;14.30;;
44987;SDS011;35735;52.226;21.254;2022-09-09T17:12:17;21.27;;;14.13;;
44987;SDS011;35735;52.226;21.254;2022-09-09T17:17:18;22.35;;;14.60;;
44987;SDS011;35735;52.226;21.254;2022-09-09T17:22:18;19.65;;;13.60;;
44987;SDS011;35735;52.226;21.254;2022-09-09T17:27:19;16.87;;;12.48;;
44987;SDS011;35735;52.226;21.254;2022-09-09T17:32:20;17.65;;;12.23;;
44987;SDS011;35735;52.226;21.254;2022-09-09T17:37:20;17.23;;;12.23;;
44987;SDS011;35735;52.226;21.254;2022-09-09T17:42:21;16.10;;;11.75;;
44987;SDS011;35735;52.226;21.254;2022-09-09T17:47:21;18.17;;;12.02;;
44987;SDS011;35735;52.226;21.254;2022-09-09T17:52:22;18.15;;;11.77;;
44987;SDS011;35735;52.226;21.254;2022-09-09T17:57:22;16.77;;;11.52;;
44987;SDS011;35735;52.226;21.254;2022-09-09T18:02:23;14.85;;;11.15;;
44987;SDS011;35735;52.226;21.254;2022-09-09T18:07:24;14.80;;;11.57;;
44987;SDS011;35735;52.226;21.254;2022-09-09T18:12:25;19.37;;;12.07;;
44987;SDS011;35735;52.226;21.254;2022-09-09T18:17:25;18.33;;;12.30;;
44987;SDS011;35735;52.226;21.254;2022-09-09T18:22:26;17.02;;;11.82;;
44987;SDS011;35735;52.226;21.254;2022-09-09T18:27:26;16.10;;;11.70;;
44987;SDS011;35735;52.226;21.254;2022-09-09T18:32:27;15.70;;;11.25;;
44987;SDS011;35735;52.226;21.254;2022-09-09T18:37:27;14.27;;;11.68;;
44987;SDS011;35735;52.226;21.254;2022-09-09T18:42:28;15.80;;;11.48;;
44987;SDS011;35735;52.226;21.254;2022-09-09T18:47:28;16.37;;;11.52;;
44987;SDS011;35735;52.226;21.254;2022-09-09T18:52:29;14.55;;;10.55;;
44987;SDS011;35735;52.226;21.254;2022-09-09T18:57:29;14.02;;;11.02;;
44987;SDS011;35735;52.226;21.254;2022-09-09T19:02:30;15.13;;;11.80;;
44987;SDS011;35735;52.226;21.254;2022-09-09T19:07:31;16.87;;;11.65;;
44987;SDS011;35735;52.226;21.254;2022-09-09T19:12:31;17.27;;;11.30;;
44987;SDS011;35735;52.226;21.254;2022-09-09T19:17:32;11.00;;;9.10;;
44987;SDS011;35735;52.226;21.254;2022-09-09T19:22:32;11.75;;;9.70;;
44987;SDS011;35735;52.226;21.254;2022-09-09T19:27:33;13.73;;;10.15;;
44987;SDS011;35735;52.226;21.254;2022-09-09T19:32:33;13.05;;;8.85;;
44987;SDS011;35735;52.226;21.254;2022-09-09T19:37:34;11.90;;;9.35;;
44987;SDS011;35735;52.226;21.254;2022-09-09T19:42:35;12.50;;;8.93;;
44987;SDS011;35735;52.226;21.254;2022-09-09T19:47:35;13.27;;;9.05;;
44987;SDS011;35735;52.226;21.254;2022-09-09T19:52:36;12.45;;;9.88;;
44987;SDS011;35735;52.226;21.254;2022-09-09T19:57:36;13.75;;;10.23;;
44987;SDS011;35735;52.226;21.254;2022-09-09T20:02:37;10.27;;;9.02;;
44987;SDS011;35735;52.226;21.254;2022-09-09T20:07:37;12.60;;;9.60;;
44987;SDS011;35735;52.226;21.254;2022-09-09T20:12:38;11.57;;;8.60;;
44987;SDS011;35735;52.226;21.254;2022-09-09T20:17:39;10.35;;;8.57;;
44987;SDS011;35735;52.226;21.254;2022-09-09T20:22:39;10.32;;;8.25;;
44987;SDS011;35735;52.226;21.254;2022-09-09T20:27:40;9.82;;;8.60;;
44987;SDS011;35735;52.226;21.254;2022-09-09T20:32:40;12.80;;;10.00;;
44987;SDS011;35735;52.226;21.254;2022-09-09T20:37:41;11.88;;;9.77;;
44987;SDS011;35735;52.226;21.254;2022-09-09T20:42:41;17.08;;;11.60;;
44987;SDS011;35735;52.226;21.254;2022-09-09T20:47:42;16.33;;;11.90;;
44987;SDS011;35735;52.226;21.254;2022-09-09T20:52:42;19.27;;;13.45;;
44987;SDS011;35735;52.226;21.254;2022-09-09T20:57:43;12.63;;;10.27;;
44987;SDS011;35735;52.226;21.254;2022-09-09T21:02:44;12.02;;;9.27;;
44987;SDS011;35735;52.226;21.254;2022-09-09T21:07:44;14.57;;;9.55;;
44987;SDS011;35735;52.226;21.254;2022-09-09T21:12:45;11.98;;;9.07;;
44987;SDS011;35735;52.226;21.254;2022-09-09T21:17:45;9.80;;;8.63;;
44987;SDS011;35735;52.226;21.254;2022-09-09T21:22:46;11.73;;;8.32;;
44987;SDS011;35735;52.226;21.254;2022-09-09T21:27:46;10.65;;;8.15;;
44987;SDS011;35735;52.226;21.254;2022-09-09T21:32:47;10.30;;;8.20;;
44987;SDS011;35735;52.226;21.254;2022-09-09T21:37:47;9.70;;;8.10;;
44987;SDS011;35735;52.226;21.254;2022-09-09T21:42:48;10.00;;;7.28;;
44987;SDS011;35735;52.226;21.254;2022-09-09T21:47:48;10.07;;;7.53;;
44987;SDS011;35735;52.226;21.254;2022-09-09T21:52:49;8.95;;;7.57;;
44987;SDS011;35735;52.226;21.254;2022-09-09T21:57:50;9.15;;;7.90;;
44987;SDS011;35735;52.226;21.254;2022-09-09T22:02:50;10.88;;;8.57;;
44987;SDS011;35735;52.226;21.254;2022-09-09T22:07:51;10.27;;;8.50;;
44987;SDS011;35735;52.226;21.254;2022-09-09T22:12:52;10.98;;;9.05;;
44987;SDS011;35735;52.226;21.254;2022-09-09T22:17:52;11.07;;;9.45;;
44987;SDS011;35735;52.226;21.254;2022-09-09T22:22:53;10.82;;;9.20;;
44987;SDS011;35735;52.226;21.254;2022-09-09T22:27:54;10.70;;;8.68;;
44987;SDS011;35735;52.226;21.254;2022-09-09T22:32:55;10.10;;;8.27;;
44987;SDS011;35735;52.226;21.254;2022-09-09T22:37:56;12.35;;;9.07;;
44987;SDS011;35735;52.226;21.254;2022-09-09T22:42:57;10.98;;;8.57;;
44987;SDS011;35735;52.226;21.254;2022-09-09T22:47:58;9.00;;;7.97;;
44987;SDS011;35735;52.226;21.254;2022-09-09T22:52:59;10.57;;;7.90;;
44987;SDS011;35735;52.226;21.254;2022-09-09T22:58:00;9.07;;;7.90;;
44987;SDS011;35735;52.226;21.254;2022-09-09T23:03:00;9.43;;;7.70;;
44987;SDS011;35735;52.226;21.254;2022-09-09T23:08:01;10.65;;;8.10;;
44987;SDS011;35735;52.226;21.254;2022-09-09T23:13:01;10.60;;;8.80;;
44987;SDS011;35735;52.226;21.254;2022-09-09T23:18:02;9.23;;;8.00;;
44987;SDS011;35735;52.226;21.254;2022-09-09T23:23:03;14.63;;;11.55;;
44987;SDS011;35735;52.226;21.254;2022-09-09T23:28:03;15.40;;;12.45;;
44987;SDS011;35735;52.226;21.254;2022-09-09T23:33:04;15.23;;;12.80;;
44987;SDS011;35735;52.226;21.254;2022-09-09T23:38:04;17.17;;;15.35;;
44987;SDS011;35735;52.226;21.254;2022-09-09T23:43:05;15.70;;;12.90;;
44987;SDS011;35735;52.226;21.254;2022-09-09T23:48:05;11.00;;;8.95;;
44987;SDS011;35735;52.226;21.254;2022-09-09T23:53:06;10.18;;;7.47;;
44987;SDS011;35735;52.226;21.254;2022-09-09T23:58:07;8.77;;;7.12;;
